createdAt,value
2022-08-12T00:00:20.613Z,3.40
2022-08-12T00:03:26.707Z,3.85
2022-08-12T00:06:33.872Z,3.33
2022-08-12T00:09:39.648Z,3.42
2022-08-12T00:12:45.037Z,3.87
2022-08-12T00:15:52.141Z,3.80
2022-08-12T00:18:57.913Z,3.72
2022-08-12T00:22:03.997Z,4.00
2022-08-12T00:25:17.343Z,3.85
2022-08-12T00:28:23.393Z,3.90
2022-08-12T00:31:30.864Z,3.40
2022-08-12T00:34:37.184Z,3.72
2022-08-12T00:37:43.568Z,4.30
2022-08-12T00:40:49.828Z,3.97
2022-08-12T00:43:37.371Z,3.97
2022-08-12T00:46:36.476Z,3.90
2022-08-12T00:49:24.682Z,4.07
2022-08-12T00:52:13.828Z,4.05
2022-08-12T00:55:02.037Z,3.90
2022-08-12T00:57:50.469Z,3.70
2022-08-12T01:00:41.076Z,4.40
2022-08-12T01:03:51.351Z,4.10
2022-08-12T01:06:59.004Z,4.03
2022-08-12T01:10:06.355Z,4.32
2022-08-12T01:12:54.279Z,4.40
2022-08-12T01:15:56.833Z,4.60
2022-08-12T01:18:44.872Z,4.65
2022-08-12T01:22:09.277Z,4.55
2022-08-12T01:25:18.696Z,4.57
2022-08-12T01:28:10.719Z,4.30
2022-08-12T01:31:01.414Z,4.43
2022-08-12T01:34:35.982Z,4.43
2022-08-12T01:37:22.636Z,4.57
2022-08-12T01:40:34.371Z,4.28
2022-08-12T01:43:21.682Z,4.50
2022-08-12T01:46:12.625Z,4.75
2022-08-12T01:49:10.504Z,4.20
2022-08-12T01:52:20.125Z,4.43
2022-08-12T01:55:11.366Z,5.20
2022-08-12T01:58:27.025Z,4.67
2022-08-12T02:01:15.231Z,5.07
2022-08-12T02:04:46.690Z,4.80
2022-08-12T02:08:03.376Z,4.70
2022-08-12T02:11:19.145Z,4.53
2022-08-12T02:14:31.600Z,4.60
2022-08-12T02:17:56.286Z,4.75
2022-08-12T02:21:24.923Z,4.35
2022-08-12T02:24:18.515Z,4.50
2022-08-12T02:27:09.279Z,5.32
2022-08-12T02:29:56.414Z,4.97
2022-08-12T02:32:46.051Z,5.28
2022-08-12T02:35:36.623Z,4.90
2022-08-12T02:38:26.329Z,4.93
2022-08-12T02:41:16.999Z,5.00
2022-08-12T02:44:09.953Z,5.10
2022-08-12T02:47:03.082Z,5.20
2022-08-12T02:49:55.361Z,5.45
2022-08-12T02:52:43.667Z,5.97
2022-08-12T02:55:36.308Z,5.60
2022-08-12T02:58:32.990Z,5.53
2022-08-12T03:01:28.641Z,5.53
2022-08-12T03:04:26.625Z,5.90
2022-08-12T03:07:26.744Z,6.10
2022-08-12T03:10:37.643Z,5.38
2022-08-12T03:13:26.577Z,5.70
2022-08-12T03:16:14.710Z,5.55
2022-08-12T03:19:02.024Z,5.95
2022-08-12T03:22:08.913Z,6.13
2022-08-12T03:25:00.206Z,6.00
2022-08-12T03:27:49.824Z,5.93
2022-08-12T03:30:38.757Z,6.13
2022-08-12T03:33:26.885Z,6.60
2022-08-12T03:36:19.985Z,6.10
2022-08-12T03:39:12.117Z,5.90
2022-08-12T03:41:59.161Z,6.43
2022-08-12T03:45:25.032Z,6.20
2022-08-12T03:48:33.396Z,6.05
2022-08-12T03:51:38.936Z,6.32
2022-08-12T03:54:45.030Z,6.47
2022-08-12T03:57:51.401Z,6.87
2022-08-12T04:00:38.492Z,6.30
2022-08-12T04:03:44.692Z,6.10
2022-08-12T04:06:35.351Z,6.60
2022-08-12T04:09:23.429Z,6.63
2022-08-12T04:12:32.837Z,6.90
2022-08-12T04:15:23.015Z,7.47
2022-08-12T04:18:11.076Z,7.03
2022-08-12T04:20:58.660Z,6.85
2022-08-12T04:23:48.515Z,6.82
2022-08-12T04:26:36.599Z,6.63
2022-08-12T04:30:32.010Z,7.18
2022-08-12T04:32:32.049Z,7.68
2022-08-12T04:35:19.408Z,6.60
2022-08-12T04:38:07.320Z,6.93
2022-08-12T04:40:54.629Z,6.80
2022-08-12T04:44:01.538Z,7.43
2022-08-12T04:46:48.891Z,6.50
2022-08-12T04:49:36.951Z,8.13
2022-08-12T04:52:24.588Z,7.22
2022-08-12T04:55:12.516Z,7.20
2022-08-12T04:58:00.379Z,7.00
2022-08-12T05:00:47.627Z,7.38
2022-08-12T05:03:46.363Z,7.32
2022-08-12T05:06:34.505Z,7.00
2022-08-12T05:09:22.045Z,7.30
2022-08-12T05:12:10.991Z,7.72
2022-08-12T05:14:59.225Z,7.13
2022-08-12T05:17:46.457Z,6.90
2022-08-12T05:20:34.620Z,6.82
2022-08-12T05:23:22.378Z,6.93
2022-08-12T05:26:10.152Z,6.68
2022-08-12T05:28:57.712Z,7.13
2022-08-12T05:31:48.082Z,7.40
2022-08-12T05:34:35.583Z,7.20
2022-08-12T05:37:23.052Z,7.37
2022-08-12T05:40:11.731Z,7.28
2022-08-12T05:42:58.836Z,7.18
2022-08-12T05:45:46.785Z,7.57
2022-08-12T05:48:33.896Z,7.03
2022-08-12T05:51:24.230Z,7.40
2022-08-12T05:54:16.501Z,7.38
2022-08-12T05:57:03.926Z,7.22
2022-08-12T05:59:53.717Z,6.93
2022-08-12T06:02:41.807Z,6.90
2022-08-12T06:05:54.349Z,6.37
2022-08-12T06:08:48.552Z,5.82
2022-08-12T06:12:05.072Z,6.07
2022-08-12T06:14:49.957Z,6.47
2022-08-12T06:17:37.607Z,5.93
2022-08-12T06:20:29.921Z,6.80
2022-08-12T06:23:21.047Z,6.38
2022-08-12T06:26:12.055Z,5.97
2022-08-12T06:29:00.824Z,6.35
2022-08-12T06:31:50.551Z,6.57
2022-08-12T06:35:23.577Z,5.87
2022-08-12T06:37:56.251Z,6.00
2022-08-12T06:41:04.178Z,5.53
2022-08-12T06:44:06.432Z,5.25
2022-08-12T06:46:54.868Z,5.18
2022-08-12T06:49:44.512Z,5.07
2022-08-12T06:52:32.693Z,5.20
2022-08-12T06:55:23.113Z,4.97
2022-08-12T06:58:11.784Z,4.72
2022-08-12T07:00:59.637Z,4.53
2022-08-12T07:03:47.122Z,4.20
2022-08-12T07:06:34.414Z,4.00
2022-08-12T07:10:07.088Z,4.20
2022-08-12T07:12:28.790Z,4.22
2022-08-12T07:15:17.939Z,4.35
2022-08-12T07:18:11.896Z,3.90
2022-08-12T07:21:03.960Z,3.72
2022-08-12T07:23:51.241Z,3.90
2022-08-12T07:26:44.255Z,3.90
2022-08-12T07:29:58.372Z,3.70
2022-08-12T07:32:39.120Z,3.57
2022-08-12T07:35:27.768Z,3.50
2022-08-12T07:38:30.845Z,3.70
2022-08-12T07:41:28.158Z,4.03
2022-08-12T07:44:15.785Z,3.75
2022-08-12T07:47:03.355Z,4.07
2022-08-12T07:50:04.803Z,3.40
2022-08-12T07:52:53.492Z,3.55
2022-08-12T07:55:40.682Z,3.72
2022-08-12T07:58:27.808Z,3.63
2022-08-12T08:01:19.731Z,3.20
2022-08-12T08:04:26.366Z,3.33
2022-08-12T08:07:16.967Z,3.35
2022-08-12T08:10:07.382Z,3.20
2022-08-12T08:12:54.478Z,3.60
2022-08-12T08:18:54.785Z,3.10
2022-08-12T08:21:42.812Z,3.67
2022-08-12T08:24:31.035Z,4.05
2022-08-12T08:27:18.644Z,3.58
2022-08-12T08:30:11.824Z,3.53
2022-08-12T08:32:59.342Z,3.60
2022-08-12T08:35:47.762Z,3.70
2022-08-12T08:38:35.565Z,4.10
2022-08-12T08:42:17.697Z,3.75
2022-08-12T08:44:58.200Z,3.33
2022-08-12T08:47:47.259Z,3.40
2022-08-12T08:50:34.563Z,3.40
2022-08-12T08:53:21.772Z,3.20
2022-08-12T08:56:12.084Z,3.50
2022-08-12T08:59:00.304Z,3.50
2022-08-12T09:01:47.937Z,3.15
2022-08-12T09:05:12.752Z,3.17
2022-08-12T09:07:59.448Z,3.80
2022-08-12T09:11:00.024Z,3.70
2022-08-12T09:14:10.493Z,3.30
2022-08-12T09:16:54.349Z,3.70
2022-08-12T09:19:42.943Z,3.53
2022-08-12T09:22:30.889Z,3.85
2022-08-12T09:25:26.470Z,3.08
2022-08-12T09:28:34.460Z,3.57
2022-08-12T09:32:03.495Z,3.20
2022-08-12T09:34:37.718Z,2.70
2022-08-12T09:37:55.115Z,2.92
2022-08-12T09:40:57.941Z,3.22
2022-08-12T09:44:05.159Z,2.87
2022-08-12T09:46:53.176Z,2.70
2022-08-12T09:49:42.552Z,2.78
2022-08-12T09:52:42.356Z,2.75
2022-08-12T09:56:21.617Z,2.33
2022-08-12T09:58:58.358Z,2.80
2022-08-12T10:02:41.814Z,2.60
2022-08-12T10:04:51.893Z,2.70
2022-08-12T10:07:39.836Z,2.80
2022-08-12T10:10:30.482Z,2.85
2022-08-12T10:13:42.407Z,2.70
2022-08-12T10:16:38.733Z,2.80
2022-08-12T10:19:36.225Z,2.65
2022-08-12T10:22:40.287Z,2.67
2022-08-12T10:26:18.322Z,2.58
2022-08-12T10:30:01.544Z,2.93
2022-08-12T10:32:45.278Z,2.50
2022-08-12T10:35:37.904Z,2.58
2022-08-12T10:38:36.386Z,2.55
2022-08-12T10:41:58.809Z,2.40
2022-08-12T10:44:47.294Z,2.67
2022-08-12T10:48:20.643Z,2.72
2022-08-12T10:50:56.732Z,2.55
2022-08-12T10:53:52.725Z,2.70
2022-08-12T10:56:41.716Z,3.00
2022-08-12T11:00:31.447Z,2.70
2022-08-12T11:04:28.359Z,3.00
2022-08-12T11:07:05.006Z,2.20
2022-08-12T11:09:07.293Z,2.92
2022-08-12T11:12:35.566Z,3.03
2022-08-12T11:15:18.769Z,2.80
2022-08-12T11:18:12.042Z,2.97
2022-08-12T11:21:05.649Z,2.58
2022-08-12T11:23:53.524Z,2.90
2022-08-12T11:26:41.130Z,2.75
2022-08-12T11:30:05.655Z,2.67
2022-08-12T11:32:38.730Z,2.50
2022-08-12T11:35:28.077Z,2.70
2022-08-12T11:38:20.314Z,3.13
2022-08-12T11:41:07.496Z,2.55
2022-08-12T11:43:58.511Z,2.80
2022-08-12T11:46:46.851Z,2.80
2022-08-12T11:49:38.611Z,2.55
2022-08-12T11:52:54.997Z,2.47
2022-08-12T11:55:33.103Z,2.40
2022-08-12T11:59:30.891Z,2.50
2022-08-12T12:02:01.963Z,2.40
2022-08-12T12:04:38.835Z,2.33
2022-08-12T12:08:36.422Z,2.50
2022-08-12T12:10:34.210Z,2.60
2022-08-12T12:14:05.446Z,2.90
2022-08-12T12:16:29.937Z,2.60
2022-08-12T12:19:17.756Z,2.60
2022-08-12T12:22:06.255Z,2.90
2022-08-12T12:24:53.954Z,2.83
2022-08-12T12:28:04.972Z,2.60
2022-08-12T12:30:54.895Z,2.70
2022-08-12T12:33:57.491Z,2.65
2022-08-12T12:36:48.875Z,2.50
2022-08-12T12:39:55.388Z,2.90
2022-08-12T12:43:00.378Z,2.80
2022-08-12T12:45:51.082Z,2.78
2022-08-12T12:48:41.400Z,2.90
2022-08-12T12:51:51.776Z,2.67
2022-08-12T12:54:52.336Z,2.65
2022-08-12T12:58:00.179Z,2.87
2022-08-12T13:00:52.139Z,2.75
2022-08-12T13:03:48.834Z,2.85
2022-08-12T13:06:36.799Z,2.80
2022-08-12T13:09:23.919Z,2.60
2022-08-12T13:12:12.590Z,2.53
2022-08-12T13:14:59.844Z,2.80
2022-08-12T13:18:01.932Z,2.60
2022-08-12T13:20:51.678Z,2.67
2022-08-12T13:23:48.013Z,2.83
2022-08-12T13:26:35.197Z,2.60
2022-08-12T13:29:24.643Z,2.80
2022-08-12T13:32:19.126Z,2.90
2022-08-12T13:35:19.262Z,2.75
2022-08-12T13:38:10.454Z,2.53
2022-08-12T13:40:58.485Z,2.90
2022-08-12T13:43:45.623Z,3.13
2022-08-12T13:46:32.947Z,2.42
2022-08-12T13:49:54.438Z,3.00
2022-08-12T13:52:27.331Z,2.42
2022-08-12T13:55:14.540Z,2.47
2022-08-12T13:58:05.175Z,2.58
2022-08-12T14:01:05.883Z,2.83
2022-08-12T14:03:54.068Z,2.65
2022-08-12T14:06:41.661Z,2.60
2022-08-12T14:09:31.450Z,2.40
2022-08-12T14:12:22.133Z,2.60
2022-08-12T14:15:11.304Z,2.40
2022-08-12T14:18:15.931Z,2.20
2022-08-12T14:21:10.046Z,2.80
2022-08-12T14:24:05.624Z,2.50
2022-08-12T14:26:56.929Z,2.47
2022-08-12T14:30:04.540Z,2.90
2022-08-12T14:32:53.702Z,2.80
2022-08-12T14:35:46.165Z,2.50
2022-08-12T14:38:41.206Z,3.10
2022-08-12T14:41:37.094Z,2.70
2022-08-12T14:44:59.217Z,2.40
2022-08-12T14:47:58.792Z,2.53
2022-08-12T14:51:09.843Z,2.33
2022-08-12T14:56:08.995Z,2.40
2022-08-12T14:57:23.489Z,2.30
2022-08-12T15:00:30.774Z,2.67
2022-08-12T15:03:17.847Z,2.28
2022-08-12T15:06:43.940Z,2.47
2022-08-12T15:09:16.963Z,2.10
2022-08-12T15:12:04.532Z,2.20
2022-08-12T15:14:53.683Z,2.03
2022-08-12T15:17:40.762Z,3.00
2022-08-12T15:20:37.432Z,2.72
2022-08-12T15:23:29.140Z,2.50
2022-08-12T15:26:21.238Z,2.50
2022-08-12T15:29:14.539Z,2.55
2022-08-12T15:32:03.616Z,2.20
2022-08-12T15:34:54.663Z,2.58
2022-08-12T15:38:08.322Z,2.20
2022-08-12T15:40:51.000Z,2.10
2022-08-12T15:44:15.848Z,2.50
2022-08-12T15:46:45.364Z,2.60
2022-08-12T15:49:54.626Z,2.40
2022-08-12T15:52:39.700Z,2.60
2022-08-12T15:55:33.615Z,2.95
2022-08-12T15:58:20.815Z,2.20
2022-08-12T16:01:11.438Z,2.78
2022-08-12T16:04:00.752Z,2.60
2022-08-12T16:07:08.763Z,2.80
2022-08-12T16:10:06.833Z,3.70
2022-08-12T16:12:57.784Z,3.20
2022-08-12T16:15:51.174Z,2.60
2022-08-12T16:18:58.618Z,2.92
2022-08-12T16:21:52.843Z,2.73
2022-08-12T16:24:45.939Z,2.90
2022-08-12T16:27:38.355Z,2.95
2022-08-12T16:30:32.792Z,2.60
2022-08-12T16:33:20.081Z,2.22
2022-08-12T16:36:11.450Z,2.70
2022-08-12T16:39:01.393Z,2.65
2022-08-12T16:41:49.132Z,2.50
2022-08-12T16:44:40.094Z,2.65
2022-08-12T16:47:57.292Z,3.20
2022-08-12T16:50:41.151Z,2.63
2022-08-12T16:53:30.768Z,2.60
2022-08-12T16:56:31.899Z,2.75
2022-08-12T16:59:19.969Z,2.67
2022-08-12T17:02:10.976Z,3.15
2022-08-12T17:04:59.705Z,2.80
2022-08-12T17:07:52.815Z,2.88
2022-08-12T17:10:40.374Z,2.97
2022-08-12T17:13:53.128Z,2.78
2022-08-12T17:16:43.229Z,3.28
2022-08-12T17:20:34.800Z,3.10
2022-08-12T17:22:43.351Z,2.42
2022-08-12T17:25:30.533Z,2.70
2022-08-12T17:28:18.606Z,2.60
2022-08-12T17:31:06.486Z,2.50
2022-08-12T17:33:55.609Z,2.87
2022-08-12T17:36:45.386Z,2.50
2022-08-12T17:40:15.100Z,2.30
2022-08-12T17:42:47.859Z,2.42
2022-08-12T17:45:36.067Z,2.50
2022-08-12T17:48:24.458Z,2.67
2022-08-12T17:51:24.486Z,2.50
2022-08-12T17:54:13.554Z,2.72
2022-08-12T17:57:16.090Z,2.47
2022-08-12T18:00:18.032Z,2.50
2022-08-12T18:03:05.528Z,2.47
2022-08-12T18:05:59.181Z,2.45
2022-08-12T18:08:54.641Z,2.70
2022-08-12T18:12:06.136Z,2.35
2022-08-12T18:15:00.611Z,2.70
2022-08-12T18:17:48.369Z,3.67
2022-08-12T18:20:46.348Z,3.78
2022-08-12T18:23:33.461Z,3.10
2022-08-12T18:26:30.487Z,2.85
2022-08-12T18:29:18.075Z,3.05
2022-08-12T18:32:53.624Z,2.43
2022-08-12T18:35:17.619Z,2.75
2022-08-12T18:38:10.077Z,2.88
2022-08-12T18:41:21.484Z,3.10
2022-08-12T18:44:11.419Z,2.40
2022-08-12T18:47:02.401Z,2.70
2022-08-12T18:49:49.758Z,2.42
2022-08-12T18:52:37.208Z,2.20
2022-08-12T18:55:37.646Z,2.08
2022-08-12T18:58:30.323Z,2.67
2022-08-12T19:02:17.888Z,2.10
2022-08-12T19:04:29.268Z,2.22
2022-08-12T19:07:21.613Z,2.47
2022-08-12T19:10:11.543Z,1.90
2022-08-12T19:13:23.879Z,2.28
2022-08-12T19:16:12.826Z,2.20
2022-08-12T19:19:00.984Z,2.30
2022-08-12T19:21:56.686Z,2.15
2022-08-12T19:25:02.939Z,2.28
2022-08-12T19:27:53.841Z,2.60
2022-08-12T19:30:59.696Z,2.37
2022-08-12T19:34:21.581Z,2.38
2022-08-12T19:36:55.014Z,2.25
2022-08-12T19:40:07.717Z,2.10
2022-08-12T19:42:57.399Z,2.47
2022-08-12T19:45:56.630Z,2.47
2022-08-12T19:48:44.878Z,2.38
2022-08-12T19:51:49.607Z,2.33
2022-08-12T19:54:37.033Z,2.15
2022-08-12T19:57:26.020Z,2.45
2022-08-12T20:00:17.256Z,2.00
2022-08-12T20:03:06.438Z,2.28
2022-08-12T20:06:08.516Z,2.30
2022-08-12T20:09:00.684Z,2.30
2022-08-12T20:12:13.789Z,2.88
2022-08-12T20:14:57.371Z,2.53
2022-08-12T20:17:50.758Z,2.53
2022-08-12T20:20:39.266Z,2.60
2022-08-12T20:23:50.445Z,2.33
2022-08-12T20:26:43.055Z,2.30
2022-08-12T20:29:35.637Z,2.20
2022-08-12T20:32:29.430Z,2.15
2022-08-12T20:36:05.836Z,2.13
2022-08-12T20:38:34.480Z,2.80
2022-08-12T20:41:25.234Z,2.40
2022-08-12T20:44:17.028Z,2.80
2022-08-12T20:47:17.889Z,2.45
2022-08-12T20:50:08.778Z,2.63
2022-08-12T20:52:55.754Z,2.25
2022-08-12T20:55:45.963Z,2.75
2022-08-12T20:58:43.436Z,2.33
2022-08-12T21:01:46.857Z,2.28
2022-08-12T21:04:53.796Z,2.47
2022-08-12T21:07:51.681Z,2.92
2022-08-12T21:10:39.524Z,2.75
2022-08-12T21:13:27.223Z,2.53
2022-08-12T21:16:16.995Z,2.92
2022-08-12T21:19:24.111Z,3.08
2022-08-12T21:22:24.676Z,2.97
2022-08-12T21:25:14.427Z,2.88
2022-08-12T21:28:07.486Z,3.07
2022-08-12T21:31:11.040Z,3.05
2022-08-12T21:34:08.642Z,3.10
2022-08-12T21:37:01.672Z,2.95
2022-08-12T21:40:13.403Z,3.50
2022-08-12T21:43:03.648Z,3.53
2022-08-12T21:46:00.571Z,3.60
2022-08-12T21:48:52.164Z,3.50
2022-08-12T21:51:52.662Z,3.10
2022-08-12T21:54:42.690Z,3.20
2022-08-12T21:57:36.005Z,3.90
2022-08-12T22:00:33.229Z,3.50
2022-08-12T22:04:03.257Z,3.17
2022-08-12T22:06:47.225Z,3.25
2022-08-12T22:09:43.537Z,3.17
2022-08-12T22:12:37.516Z,3.90
2022-08-12T22:15:24.882Z,3.40
2022-08-12T22:18:13.105Z,3.30
2022-08-12T22:21:03.342Z,3.50
2022-08-12T22:24:05.061Z,3.40
2022-08-12T22:26:53.031Z,3.57
2022-08-12T22:29:58.995Z,3.35
2022-08-12T22:32:50.074Z,3.22
2022-08-12T22:35:55.592Z,3.50
2022-08-12T22:38:46.212Z,3.05
2022-08-12T22:41:57.539Z,3.37
2022-08-12T22:45:03.263Z,3.70
2022-08-12T22:47:54.840Z,3.67
2022-08-12T22:50:43.271Z,3.67
2022-08-12T22:53:36.376Z,3.90
2022-08-12T22:56:30.931Z,3.77
2022-08-12T22:59:18.587Z,3.13
2022-08-12T23:02:11.296Z,3.72
2022-08-12T23:04:58.779Z,3.80
2022-08-12T23:07:59.084Z,3.33
2022-08-12T23:10:48.218Z,3.70
2022-08-12T23:13:54.671Z,3.53
2022-08-12T23:16:43.334Z,3.30
2022-08-12T23:19:38.324Z,3.60
2022-08-12T23:22:36.250Z,3.58
2022-08-12T23:25:54.436Z,3.87
2022-08-12T23:28:53.229Z,4.28
2022-08-12T23:32:03.045Z,3.85
2022-08-12T23:34:47.947Z,3.60
2022-08-12T23:37:46.505Z,3.70
2022-08-12T23:40:33.990Z,3.47
2022-08-12T23:43:25.432Z,3.25
2022-08-12T23:46:19.882Z,3.80
2022-08-12T23:49:13.772Z,3.78
2022-08-12T23:52:15.436Z,4.15
2022-08-12T23:55:24.128Z,3.83
2022-08-12T23:58:21.854Z,4.05
